createdAt,value
2022-11-27T00:01:27.698Z,98658.75
2022-11-27T00:03:55.798Z,98656.41
2022-11-27T00:06:27.697Z,98660.75
2022-11-27T00:08:57.762Z,98654.59
2022-11-27T00:11:26.055Z,98650.47
2022-11-27T00:13:52.982Z,98647.81
2022-11-27T00:16:21.058Z,98638.25
2022-11-27T00:18:48.338Z,98650.44
2022-11-27T00:21:22.494Z,98643.31
2022-11-27T00:23:49.963Z,98641.81
2022-11-27T00:26:16.524Z,98643.41
2022-11-27T00:28:43.092Z,98642.66
2022-11-27T00:31:17.145Z,98632.44
2022-11-27T00:33:44.169Z,98637.50
2022-11-27T00:36:12.712Z,98638.34
2022-11-27T00:38:39.503Z,98648.38
2022-11-27T00:41:20.860Z,98651.13
2022-11-27T00:43:47.869Z,98649.41
2022-11-27T00:46:16.377Z,98645.72
2022-11-27T00:48:43.515Z,98650.03
2022-11-27T00:51:13.724Z,98646.00
2022-11-27T00:53:40.514Z,98639.84
2022-11-27T00:56:07.956Z,98636.53
2022-11-27T00:58:34.879Z,98624.59
2022-11-27T01:01:08.958Z,98618.53
2022-11-27T01:03:35.821Z,98618.84
2022-11-27T01:06:06.969Z,98624.81
2022-11-27T01:08:34.685Z,98617.09
2022-11-27T01:11:01.897Z,98615.94
2022-11-27T01:13:31.557Z,98612.56
2022-11-27T01:16:03.228Z,98609.16
2022-11-27T01:18:30.094Z,98606.81
2022-11-27T01:20:57.532Z,98604.91
2022-11-27T01:23:24.543Z,98601.59
2022-11-27T01:25:53.382Z,98602.59
2022-11-27T01:28:21.874Z,98604.75
2022-11-27T01:30:48.690Z,98603.81
2022-11-27T01:33:18.729Z,98606.50
2022-11-27T01:36:01.037Z,98593.22
2022-11-27T01:38:29.269Z,98595.38
2022-11-27T01:41:08.265Z,98591.28
2022-11-27T01:43:50.905Z,98589.59
2022-11-27T01:46:35.501Z,98574.06
2022-11-27T01:49:09.455Z,98575.97
2022-11-27T01:51:50.586Z,98568.91
2022-11-27T01:54:19.139Z,98570.66
2022-11-27T01:56:50.187Z,98580.09
2022-11-27T01:59:18.141Z,98574.00
2022-11-27T02:01:44.804Z,98571.56
2022-11-27T02:04:11.854Z,98581.97
2022-11-27T02:06:38.573Z,98568.91
2022-11-27T02:09:05.149Z,98558.41
2022-11-27T02:11:42.813Z,98567.16
2022-11-27T02:14:38.035Z,98569.75
2022-11-27T02:17:09.752Z,98570.50
2022-11-27T02:19:54.219Z,98559.25
2022-11-27T02:22:57.958Z,98550.00
2022-11-27T02:25:39.794Z,98549.72
2022-11-27T02:28:29.912Z,98550.91
2022-11-27T02:31:29.167Z,98550.00
2022-11-27T02:34:07.353Z,98558.41
2022-11-27T02:36:35.473Z,98557.63
2022-11-27T02:39:14.740Z,98561.63
2022-11-27T02:41:53.244Z,98560.72
2022-11-27T02:44:22.720Z,98561.09
2022-11-27T02:46:52.654Z,98559.25
2022-11-27T02:49:20.722Z,98556.53
2022-11-27T02:51:57.107Z,98560.16
2022-11-27T02:54:27.950Z,98549.81
2022-11-27T02:56:57.367Z,98539.63
2022-11-27T02:59:26.652Z,98548.97
2022-11-27T03:02:01.383Z,98548.06
2022-11-27T03:04:37.810Z,98539.69
2022-11-27T03:07:14.780Z,98532.84
2022-11-27T03:09:48.387Z,98527.66
2022-11-27T03:12:16.220Z,98525.06
2022-11-27T03:14:47.119Z,98528.69
2022-11-27T03:17:31.978Z,98528.47
2022-11-27T03:20:34.992Z,98523.44
2022-11-27T03:23:01.581Z,98518.13
2022-11-27T03:25:28.749Z,98511.59
2022-11-27T03:28:08.164Z,98499.28
2022-11-27T03:30:34.699Z,98500.91
2022-11-27T03:33:02.167Z,98507.59
2022-11-27T03:35:29.500Z,98508.31
2022-11-27T03:37:56.808Z,98499.56
2022-11-27T03:40:35.501Z,98500.72
2022-11-27T03:43:09.843Z,98502.59
2022-11-27T03:45:45.686Z,98504.94
2022-11-27T03:48:21.073Z,98503.13
2022-11-27T03:51:09.520Z,98508.47
2022-11-27T03:54:00.915Z,98511.75
2022-11-27T03:56:53.408Z,98510.22
2022-11-27T03:59:26.264Z,98512.78
2022-11-27T04:01:52.949Z,98510.84
2022-11-27T04:04:19.640Z,98515.25
2022-11-27T04:06:46.323Z,98508.34
2022-11-27T04:09:12.863Z,98507.41
2022-11-27T04:11:39.398Z,98510.00
2022-11-27T04:14:06.091Z,98515.78
2022-11-27T04:16:32.835Z,98508.16
2022-11-27T04:18:59.432Z,98513.47
2022-11-27T04:21:28.178Z,98501.38
2022-11-27T04:23:54.680Z,98504.63
2022-11-27T04:26:21.241Z,98496.94
2022-11-27T04:28:48.017Z,98507.03
2022-11-27T04:31:14.704Z,98495.97
2022-11-27T04:33:43.704Z,98488.25
2022-11-27T04:36:10.390Z,98485.94
2022-11-27T04:38:36.979Z,98492.47
2022-11-27T04:41:03.558Z,98495.84
2022-11-27T04:43:30.091Z,98489.91
2022-11-27T04:45:56.785Z,98494.06
2022-11-27T04:48:23.347Z,98489.06
2022-11-27T04:50:49.879Z,98493.34
2022-11-27T04:53:16.353Z,98501.13
2022-11-27T04:55:42.877Z,98497.03
2022-11-27T04:58:09.393Z,98492.63
2022-11-27T05:00:36.201Z,98491.59
2022-11-27T05:03:02.784Z,98494.25
2022-11-27T05:05:29.428Z,98490.81
2022-11-27T05:07:58.289Z,98475.38
2022-11-27T05:10:24.921Z,98477.84
2022-11-27T05:12:51.463Z,98487.34
2022-11-27T05:15:18.027Z,98479.84
2022-11-27T05:17:44.603Z,98480.47
2022-11-27T05:20:11.512Z,98478.66
2022-11-27T05:22:38.154Z,98480.44
2022-11-27T05:25:04.945Z,98488.13
2022-11-27T05:27:31.540Z,98487.22
2022-11-27T05:29:58.126Z,98496.09
2022-11-27T05:32:25.075Z,98486.53
2022-11-27T05:34:51.632Z,98488.38
2022-11-27T05:37:20.005Z,98478.06
2022-11-27T05:39:46.832Z,98483.09
2022-11-27T05:42:13.394Z,98480.44
2022-11-27T05:44:40.071Z,98489.94
2022-11-27T05:47:07.012Z,98483.19
2022-11-27T05:49:33.716Z,98471.16
2022-11-27T05:52:00.221Z,98481.69
2022-11-27T05:54:26.909Z,98468.78
2022-11-27T05:56:53.451Z,98476.25
2022-11-27T05:59:20.187Z,98467.53
2022-11-27T06:01:49.471Z,98467.47
2022-11-27T06:04:16.321Z,98468.19
2022-11-27T06:06:42.811Z,98469.13
2022-11-27T06:09:12.839Z,98459.63
2022-11-27T06:11:40.567Z,98457.66
2022-11-27T06:14:09.105Z,98453.53
2022-11-27T06:16:36.386Z,98465.44
2022-11-27T06:19:03.433Z,98464.75
2022-11-27T06:21:29.976Z,98462.13
2022-11-27T06:23:57.181Z,98460.44
2022-11-27T06:26:29.375Z,98468.16
2022-11-27T06:28:57.311Z,98468.78
2022-11-27T06:31:28.631Z,98462.09
2022-11-27T06:33:58.834Z,98467.22
2022-11-27T06:36:32.500Z,98458.94
2022-11-27T06:38:59.125Z,98454.91
2022-11-27T06:41:27.196Z,98458.28
2022-11-27T06:43:55.032Z,98456.31
2022-11-27T06:46:23.472Z,98450.31
2022-11-27T06:48:51.860Z,98450.28
2022-11-27T06:51:26.780Z,98452.00
2022-11-27T06:53:53.728Z,98454.25
2022-11-27T06:56:23.880Z,98444.56
2022-11-27T06:58:55.676Z,98457.38
2022-11-27T07:01:24.236Z,98452.06
2022-11-27T07:03:51.258Z,98440.06
2022-11-27T07:06:20.788Z,98433.88
2022-11-27T07:08:47.752Z,98435.63
2022-11-27T07:11:20.009Z,98435.53
2022-11-27T07:13:48.145Z,98434.56
2022-11-27T07:16:15.680Z,98432.81
2022-11-27T07:18:44.977Z,98433.47
2022-11-27T07:21:12.409Z,98425.34
2022-11-27T07:23:39.354Z,98435.97
2022-11-27T07:26:08.477Z,98428.34
2022-11-27T07:28:35.732Z,98434.44
2022-11-27T07:31:02.548Z,98437.38
2022-11-27T07:33:29.122Z,98437.44
2022-11-27T07:36:16.453Z,98447.47
2022-11-27T07:38:43.667Z,98449.06
2022-11-27T07:41:10.536Z,98455.66
2022-11-27T07:43:37.355Z,98448.63
2022-11-27T07:46:08.207Z,98452.06
2022-11-27T07:48:37.671Z,98458.06
2022-11-27T07:51:09.074Z,98453.75
2022-11-27T07:53:37.576Z,98458.72
2022-11-27T07:56:09.908Z,98467.19
2022-11-27T07:58:36.888Z,98462.22
2022-11-27T08:01:12.184Z,98459.81
2022-11-27T08:03:39.524Z,98461.56
2022-11-27T08:06:14.710Z,98464.75
2022-11-27T08:08:41.591Z,98461.31
2022-11-27T08:11:25.124Z,98456.06
2022-11-27T08:13:57.239Z,98449.38
2022-11-27T08:16:27.312Z,98450.09
2022-11-27T08:18:53.975Z,98450.59
2022-11-27T08:21:20.562Z,98447.53
2022-11-27T08:23:47.325Z,98449.22
2022-11-27T08:26:14.705Z,98447.75
2022-11-27T08:28:42.218Z,98440.88
2022-11-27T08:31:11.423Z,98443.19
2022-11-27T08:33:38.340Z,98439.28
2022-11-27T08:36:08.186Z,98419.97
2022-11-27T08:38:36.427Z,98422.56
2022-11-27T08:41:05.003Z,98420.94
2022-11-27T08:43:32.211Z,98415.63
2022-11-27T08:46:01.624Z,98409.00
2022-11-27T08:48:28.441Z,98412.06
2022-11-27T08:50:57.442Z,98413.69
2022-11-27T08:53:24.060Z,98411.69
2022-11-27T08:55:50.611Z,98401.50
2022-11-27T08:58:17.147Z,98403.06
2022-11-27T09:00:43.845Z,98399.50
2022-11-27T09:03:12.383Z,98398.78
2022-11-27T09:05:44.675Z,98392.50
2022-11-27T09:08:13.552Z,98388.13
2022-11-27T09:10:40.148Z,98385.25
2022-11-27T09:13:06.663Z,98383.56
2022-11-27T09:15:33.354Z,98382.78
2022-11-27T09:17:59.927Z,98379.81
2022-11-27T09:20:26.538Z,98383.97
2022-11-27T09:22:53.082Z,98378.66
2022-11-27T09:25:19.721Z,98377.34
2022-11-27T09:27:46.304Z,98380.63
2022-11-27T09:30:13.449Z,98367.16
2022-11-27T09:32:40.042Z,98364.25
2022-11-27T09:35:09.413Z,98365.94
2022-11-27T09:37:36.041Z,98359.56
2022-11-27T09:40:02.679Z,98357.03
2022-11-27T09:42:53.578Z,98357.69
2022-11-27T09:45:22.373Z,98357.16
2022-11-27T09:47:52.888Z,98359.44
2022-11-27T09:50:25.839Z,98350.44
2022-11-27T09:52:55.045Z,98351.09
2022-11-27T09:55:24.877Z,98337.69
2022-11-27T09:58:16.292Z,98345.25
2022-11-27T10:00:47.645Z,98336.84
2022-11-27T10:03:18.672Z,98331.63
2022-11-27T10:06:22.232Z,98321.78
2022-11-27T10:08:55.741Z,98330.66
2022-11-27T10:11:25.160Z,98310.44
2022-11-27T10:14:20.976Z,98304.59
2022-11-27T10:16:51.334Z,98306.31
2022-11-27T10:19:41.761Z,98306.19
2022-11-27T10:22:25.402Z,98297.16
2022-11-27T10:24:55.303Z,98292.06
2022-11-27T10:27:41.161Z,98288.31
2022-11-27T10:30:20.954Z,98282.56
2022-11-27T10:32:55.992Z,98282.25
2022-11-27T10:35:33.101Z,98272.72
2022-11-27T10:38:15.094Z,98270.25
2022-11-27T10:41:47.708Z,98276.09
2022-11-27T10:44:22.064Z,98272.22
2022-11-27T10:46:51.160Z,98275.97
2022-11-27T10:49:17.766Z,98266.22
2022-11-27T10:51:44.394Z,98274.09
2022-11-27T10:54:22.225Z,98273.97
2022-11-27T10:57:04.111Z,98260.59
2022-11-27T10:59:37.525Z,98253.00
2022-11-27T11:02:05.737Z,98251.50
2022-11-27T11:04:40.198Z,98247.84
2022-11-27T11:07:28.330Z,98239.53
2022-11-27T11:09:55.300Z,98235.03
2022-11-27T11:12:23.776Z,98240.06
2022-11-27T11:15:01.708Z,98234.28
2022-11-27T11:17:34.785Z,98235.47
2022-11-27T11:20:18.892Z,98233.00
2022-11-27T11:22:48.643Z,98224.34
2022-11-27T11:25:20.081Z,98211.53
2022-11-27T11:27:48.332Z,98218.16
2022-11-27T11:30:23.018Z,98215.91
2022-11-27T11:32:51.264Z,98211.94
2022-11-27T11:35:44.344Z,98220.19
2022-11-27T11:38:22.090Z,98217.81
2022-11-27T11:41:04.735Z,98213.38
2022-11-27T11:43:36.334Z,98218.22
2022-11-27T11:46:22.837Z,98220.13
2022-11-27T11:49:25.033Z,98214.50
2022-11-27T11:52:23.634Z,98211.84
2022-11-27T11:55:08.949Z,98209.94
2022-11-27T11:57:38.530Z,98208.59
2022-11-27T12:00:11.652Z,98207.84
2022-11-27T12:03:06.297Z,98202.75
2022-11-27T12:05:54.574Z,98203.19
2022-11-27T12:08:49.152Z,98206.22
2022-11-27T12:11:17.025Z,98204.00
2022-11-27T12:14:11.433Z,98203.59
2022-11-27T12:16:59.053Z,98195.00
2022-11-27T12:19:37.886Z,98193.72
2022-11-27T12:22:16.765Z,98193.47
2022-11-27T12:25:25.185Z,98182.75
2022-11-27T12:27:57.670Z,98176.16
2022-11-27T12:30:32.820Z,98168.81
2022-11-27T12:33:19.280Z,98176.88
2022-11-27T12:35:56.455Z,98167.78
2022-11-27T12:39:09.634Z,98159.31
2022-11-27T12:41:51.270Z,98154.34
2022-11-27T12:44:44.573Z,98151.75
2022-11-27T12:47:27.016Z,98156.75
2022-11-27T12:50:02.945Z,98157.38
2022-11-27T12:52:40.746Z,98155.06
2022-11-27T12:55:21.424Z,98152.25
2022-11-27T12:57:52.872Z,98162.75
2022-11-27T13:00:23.214Z,98159.22
2022-11-27T13:03:15.064Z,98169.00
2022-11-27T13:05:52.645Z,98159.13
2022-11-27T13:08:23.324Z,98156.78
2022-11-27T13:10:56.902Z,98165.72
2022-11-27T13:13:32.698Z,98159.91
2022-11-27T13:16:05.581Z,98156.34
2022-11-27T13:18:47.086Z,98153.38
2022-11-27T13:21:22.997Z,98153.88
2022-11-27T13:23:51.097Z,98146.28
2022-11-27T13:26:33.349Z,98145.50
2022-11-27T13:29:04.105Z,98144.38
2022-11-27T13:31:39.265Z,98142.56
2022-11-27T13:34:18.417Z,98148.63
2022-11-27T13:36:48.378Z,98139.19
2022-11-27T13:39:33.515Z,98137.84
2022-11-27T13:42:11.002Z,98136.03
2022-11-27T13:44:42.718Z,98128.56
2022-11-27T13:47:16.473Z,98122.34
2022-11-27T13:49:43.532Z,98112.97
2022-11-27T13:52:19.101Z,98114.59
2022-11-27T13:55:00.489Z,98113.75
2022-11-27T13:57:29.616Z,98117.19
2022-11-27T14:00:11.603Z,98113.66
2022-11-27T14:02:46.892Z,98111.88
2022-11-27T14:05:16.733Z,98101.41
2022-11-27T14:07:52.426Z,98110.88
2022-11-27T14:10:23.384Z,98101.75
2022-11-27T14:13:03.531Z,98091.16
2022-11-27T14:15:33.232Z,98092.72
2022-11-27T14:18:17.069Z,98087.50
2022-11-27T14:20:56.751Z,98081.28
2022-11-27T14:23:29.407Z,98077.66
2022-11-27T14:26:20.666Z,98078.88
2022-11-27T14:28:54.370Z,98079.00
2022-11-27T14:31:31.571Z,98086.19
2022-11-27T14:34:16.888Z,98074.34
2022-11-27T14:36:45.328Z,98070.44
2022-11-27T14:39:31.229Z,98070.84
2022-11-27T14:42:05.538Z,98067.34
2022-11-27T14:44:32.950Z,98069.91
2022-11-27T14:47:03.450Z,98067.53
2022-11-27T14:49:32.090Z,98066.63
2022-11-27T14:52:06.940Z,98070.06
2022-11-27T14:54:37.612Z,98063.47
2022-11-27T14:57:05.524Z,98065.56
2022-11-27T14:59:32.405Z,98062.63
2022-11-27T15:02:15.437Z,98059.91
2022-11-27T15:04:44.292Z,98046.13
2022-11-27T15:07:18.342Z,98048.97
2022-11-27T15:09:48.845Z,98045.75
2022-11-27T15:12:18.838Z,98043.84
2022-11-27T15:14:57.629Z,98046.47
2022-11-27T15:17:28.462Z,98047.25
2022-11-27T15:19:57.457Z,98043.97
2022-11-27T15:22:24.458Z,98037.50
2022-11-27T15:25:02.016Z,98032.50
2022-11-27T15:27:31.759Z,98026.22
2022-11-27T15:30:11.787Z,98032.03
2022-11-27T15:32:51.387Z,98024.59
2022-11-27T15:35:30.048Z,98025.16
2022-11-27T15:37:57.830Z,98020.69
2022-11-27T15:40:36.423Z,98020.34
2022-11-27T15:43:06.530Z,98016.75
2022-11-27T15:45:33.330Z,98009.09
2022-11-27T15:48:01.315Z,98010.13
2022-11-27T15:50:30.653Z,98007.03
2022-11-27T15:52:57.761Z,97998.81
2022-11-27T15:55:24.414Z,98004.34
2022-11-27T15:57:53.464Z,98002.44
2022-11-27T16:00:22.108Z,98000.06
2022-11-27T16:02:48.587Z,98002.19
2022-11-27T16:05:17.447Z,98005.06
2022-11-27T16:07:43.923Z,98009.41
2022-11-27T16:10:11.099Z,97997.50
2022-11-27T16:12:38.927Z,97998.09
2022-11-27T16:15:07.674Z,97994.69
2022-11-27T16:17:34.546Z,97985.69
2022-11-27T16:20:01.039Z,97988.09
2022-11-27T16:22:27.560Z,97986.22
2022-11-27T16:24:54.017Z,97985.31
2022-11-27T16:27:22.756Z,97972.09
2022-11-27T16:29:51.908Z,97967.97
2022-11-27T16:32:18.379Z,97959.84
2022-11-27T16:34:47.136Z,97962.94
2022-11-27T16:37:18.259Z,97954.28
2022-11-27T16:39:45.304Z,97952.13
2022-11-27T16:42:11.801Z,97959.31
2022-11-27T16:44:38.332Z,97955.41
2022-11-27T16:47:05.220Z,97955.94
2022-11-27T16:49:31.733Z,97950.25
2022-11-27T16:51:58.326Z,97949.53
2022-11-27T16:54:24.789Z,97950.03
2022-11-27T16:56:51.881Z,97953.41
2022-11-27T16:59:18.328Z,97950.38
2022-11-27T17:01:45.274Z,97947.84
2022-11-27T17:04:18.311Z,97948.56
2022-11-27T17:06:45.755Z,97948.75
2022-11-27T17:09:12.855Z,97935.13
2022-11-27T17:11:43.185Z,97941.84
2022-11-27T17:14:10.592Z,97935.13
2022-11-27T17:16:42.593Z,97931.09
2022-11-27T17:19:15.856Z,97928.44
2022-11-27T17:21:42.394Z,97915.78
2022-11-27T17:24:15.484Z,97927.19
2022-11-27T17:26:44.046Z,97931.97
2022-11-27T17:29:11.965Z,97930.00
2022-11-27T17:31:41.761Z,97930.84
2022-11-27T17:34:11.949Z,97926.31
2022-11-27T17:36:38.997Z,97925.06
2022-11-27T17:39:06.379Z,97922.13
2022-11-27T17:41:33.460Z,97912.84
2022-11-27T17:44:00.430Z,97907.28
2022-11-27T17:46:30.693Z,97904.50
2022-11-27T17:49:00.158Z,97901.56
2022-11-27T17:51:31.727Z,97886.53
2022-11-27T17:54:02.734Z,97877.16
2022-11-27T17:56:29.539Z,97877.34
2022-11-27T17:58:56.024Z,97873.22
2022-11-27T18:01:25.690Z,97866.78
2022-11-27T18:03:55.649Z,97861.03
2022-11-27T18:06:25.462Z,97854.06
2022-11-27T18:08:52.332Z,97852.78
2022-11-27T18:11:21.594Z,97846.06
2022-11-27T18:13:49.617Z,97839.97
2022-11-27T18:16:22.937Z,97845.00
2022-11-27T18:18:50.036Z,97834.72
2022-11-27T18:21:19.379Z,97830.72
2022-11-27T18:24:21.316Z,97813.34
2022-11-27T18:27:00.543Z,97807.91
2022-11-27T18:29:21.888Z,97806.81
2022-11-27T18:31:49.959Z,97810.38
2022-11-27T18:34:16.545Z,97801.25
2022-11-27T18:36:43.139Z,97804.19
2022-11-27T18:39:09.698Z,97806.38
2022-11-27T18:41:38.981Z,97814.91
2022-11-27T18:44:08.543Z,97812.97
2022-11-27T18:46:35.244Z,97795.91
2022-11-27T18:49:01.967Z,97799.03
2022-11-27T18:51:28.553Z,97782.16
2022-11-27T18:53:56.599Z,97776.25
2022-11-27T18:56:26.044Z,97778.94
2022-11-27T18:58:54.033Z,97774.59
2022-11-27T19:01:26.425Z,97776.84
2022-11-27T19:03:53.369Z,97766.38
2022-11-27T19:06:21.915Z,97773.56
2022-11-27T19:08:48.704Z,97770.97
2022-11-27T19:11:22.757Z,97770.16
2022-11-27T19:13:51.117Z,97766.22
2022-11-27T19:16:20.632Z,97764.00
2022-11-27T19:18:47.615Z,97773.63
2022-11-27T19:21:17.563Z,97769.44
2022-11-27T19:23:44.609Z,97763.84
2022-11-27T19:26:16.254Z,97767.94
2022-11-27T19:28:43.518Z,97777.69
2022-11-27T19:31:13.138Z,97769.81
2022-11-27T19:33:40.118Z,97768.66
2022-11-27T19:36:12.550Z,97758.25
2022-11-27T19:38:44.940Z,97760.50
2022-11-27T19:41:14.048Z,97745.97
2022-11-27T19:43:40.884Z,97747.78
2022-11-27T19:46:34.808Z,97746.28
2022-11-27T19:49:06.615Z,97751.16
2022-11-27T19:51:37.816Z,97753.94
2022-11-27T19:54:10.582Z,97747.53
2022-11-27T19:56:39.745Z,97745.97
2022-11-27T19:59:09.460Z,97742.09
2022-11-27T20:01:38.017Z,97745.13
2022-11-27T20:04:07.916Z,97747.03
2022-11-27T20:06:37.150Z,97733.69
2022-11-27T20:09:05.314Z,97728.47
2022-11-27T20:11:35.656Z,97732.34
2022-11-27T20:14:04.289Z,97726.16
2022-11-27T20:16:32.148Z,97733.19
2022-11-27T20:18:58.782Z,97729.38
2022-11-27T20:21:26.049Z,97724.88
2022-11-27T20:23:54.239Z,97713.66
2022-11-27T20:26:23.592Z,97715.88
2022-11-27T20:28:53.826Z,97706.00
2022-11-27T20:31:24.234Z,97703.16
2022-11-27T20:33:55.969Z,97706.47
2022-11-27T20:36:24.104Z,97705.91
2022-11-27T20:38:51.166Z,97709.06
2022-11-27T20:41:20.278Z,97706.84
2022-11-27T20:43:47.380Z,97704.41
2022-11-27T20:46:15.579Z,97690.50
2022-11-27T20:48:45.305Z,97679.22
2022-11-27T20:51:16.786Z,97675.28
2022-11-27T20:53:48.550Z,97677.19
2022-11-27T20:56:16.752Z,97671.91
2022-11-27T20:58:50.724Z,97671.09
2022-11-27T21:01:29.649Z,97661.38
2022-11-27T21:03:58.064Z,97664.44
2022-11-27T21:06:28.293Z,97663.22
2022-11-27T21:08:55.515Z,97664.69
2022-11-27T21:11:26.984Z,97657.13
2022-11-27T21:14:01.890Z,97652.44
2022-11-27T21:16:34.226Z,97649.97
2022-11-27T21:19:06.216Z,97638.34
2022-11-27T21:21:33.366Z,97640.91
2022-11-27T21:24:00.353Z,97631.97
2022-11-27T21:26:27.168Z,97632.81
2022-11-27T21:28:53.658Z,97615.22
2022-11-27T21:31:23.604Z,97612.56
2022-11-27T21:33:55.893Z,97609.69
2022-11-27T21:36:25.648Z,97602.59
2022-11-27T21:38:54.365Z,97604.25
2022-11-27T21:41:24.212Z,97598.66
2022-11-27T21:43:55.186Z,97599.34
2022-11-27T21:46:25.004Z,97589.09
2022-11-27T21:48:55.619Z,97587.56
2022-11-27T21:51:23.037Z,97586.03
2022-11-27T21:53:51.433Z,97588.97
2022-11-27T21:56:20.072Z,97587.97
2022-11-27T21:58:46.967Z,97577.16
2022-11-27T22:01:18.259Z,97571.78
2022-11-27T22:03:47.589Z,97562.31
2022-11-27T22:06:17.809Z,97566.75
2022-11-27T22:08:46.437Z,97564.31
2022-11-27T22:11:21.867Z,97555.09
2022-11-27T22:13:48.619Z,97555.41
2022-11-27T22:16:20.460Z,97546.81
2022-11-27T22:18:48.242Z,97545.31
2022-11-27T22:21:15.986Z,97540.38
2022-11-27T22:23:43.587Z,97524.06
2022-11-27T22:26:15.735Z,97538.56
2022-11-27T22:28:42.931Z,97524.47
2022-11-27T22:31:13.013Z,97526.22
2022-11-27T22:33:41.217Z,97523.56
2022-11-27T22:36:20.929Z,97523.34
2022-11-27T22:38:51.653Z,97509.13
2022-11-27T22:41:20.207Z,97515.25
2022-11-27T22:43:46.741Z,97515.94
2022-11-27T22:46:29.384Z,97520.50
2022-11-27T22:48:58.220Z,97508.97
2022-11-27T22:51:26.452Z,97511.16
2022-11-27T22:53:53.163Z,97509.19
2022-11-27T22:56:19.856Z,97506.88
2022-11-27T22:58:46.395Z,97505.50
2022-11-27T23:01:19.425Z,97497.09
2022-11-27T23:03:46.070Z,97501.44
2022-11-27T23:06:16.679Z,97495.97
2022-11-27T23:08:47.398Z,97491.59
2022-11-27T23:11:22.279Z,97496.41
2022-11-27T23:13:51.452Z,97489.72
2022-11-27T23:16:18.872Z,97481.81
2022-11-27T23:18:46.232Z,97488.66
2022-11-27T23:21:18.175Z,97486.91
2022-11-27T23:23:45.504Z,97490.00
2022-11-27T23:26:18.168Z,97488.25
2022-11-27T23:28:51.286Z,97478.56
2022-11-27T23:31:30.429Z,97479.19
2022-11-27T23:33:59.269Z,97472.81
2022-11-27T23:36:25.890Z,97473.66
2022-11-27T23:38:52.416Z,97463.41
2022-11-27T23:41:25.324Z,97469.72
2022-11-27T23:43:53.446Z,97460.25
2022-11-27T23:46:26.122Z,97443.34
2022-11-27T23:48:54.764Z,97441.44
2022-11-27T23:51:24.586Z,97442.34
2022-11-27T23:53:51.514Z,97440.34
2022-11-27T23:56:21.297Z,97429.06
2022-11-27T23:58:48.032Z,97430.38
